Oark, Arkansas
Current Conditions -  °F | °C
As of 10:53 AM on Saturday 20 Dec 2014 (Local Time) from KFYV Reporting Station
Overcast Overcast  
Wind Chill: 41°   Ceiling: 1500
Heat Index: 41°   Visibility: 10mi
Dew Point: 37°   Wind: 0mph
Humidity: 86%   Direction: NA
Pressure: 30.24"   Gusts: NA
Location:  35.69°N, 93.57°W
Report Text: KFYV 201653Z 00000KT 10SM OVC015 05/03 A3024 RMK AO2 SLP243 T00500028 $
Loading
Personal Weather Stations






























Interactive Weather Map New forecast layout! Learn more

10-Day Weather Forecast

Advertisements
Track Severe Weather on mobile